Time;durP1;ratioP1;P1;durP2;ratioP2;P2;SDS_P1;SDS_P2;PMS_P1;PMS_P2;Temp;Humidity;BMP_temperature;BMP_pressure;BME280_temperature;BME280_humidity;BME280_pressure;Samples;Min_cycle;Max_cycle;Signal;HPM_P1;HPM_P2
2021/11/13 00:01:10;;;;;;;43.27;21.43;;;10.60;99.90;;;;;;5067452;28;20200;-66
2021/11/13 00:03:36;;;;;;;36.50;21.43;;;10.60;99.90;;;;;;5068339;28;20176;-66
2021/11/13 00:06:02;;;;;;;40.13;19.73;;;10.70;99.90;;;;;;5067988;28;20180;-65
2021/11/13 00:08:27;;;;;;;39.43;20.40;;;10.70;99.90;;;;;;5068066;28;20618;-65
2021/11/13 00:10:53;;;;;;;38.00;19.83;;;10.80;99.90;;;;;;5067502;28;20169;-66
2021/11/13 00:13:24;;;;;;;35.90;19.60;;;10.70;99.90;;;;;;5067862;28;20216;-65
2021/11/13 00:15:51;;;;;;;34.97;18.20;;;10.80;99.90;;;;;;5067497;28;20169;-65
2021/11/13 00:18:17;;;;;;;40.33;20.37;;;10.80;99.90;;;;;;5068060;28;20183;-65
2021/11/13 00:20:43;;;;;;;33.33;19.23;;;10.90;99.90;;;;;;5066274;28;20188;-65
2021/11/13 00:23:10;;;;;;;32.17;18.60;;;11.00;99.90;;;;;;5068043;28;20235;-66
2021/11/13 00:25:36;;;;;;;31.97;17.70;;;10.90;99.90;;;;;;5067632;28;20157;-65
2021/11/13 00:28:02;;;;;;;38.03;18.27;;;10.90;99.90;;;;;;5067804;28;20157;-65
2021/11/13 00:30:28;;;;;;;33.87;19.00;;;10.90;99.90;;;;;;5067194;28;20226;-65
2021/11/13 00:32:54;;;;;;;36.40;17.80;;;11.00;99.90;;;;;;5067761;28;20251;-66
2021/11/13 00:35:20;;;;;;;35.60;18.13;;;11.00;99.90;;;;;;5067415;28;20176;-66
2021/11/13 00:37:47;;;;;;;29.27;17.20;;;11.00;99.90;;;;;;5066751;28;20169;-65
2021/11/13 00:40:15;;;;;;;32.60;18.83;;;11.00;99.90;;;;;;5066893;28;20165;-65
2021/11/13 00:42:40;;;;;;;32.90;17.50;;;10.90;99.90;;;;;;5067417;28;20171;-65
2021/11/13 00:45:07;;;;;;;28.43;16.10;;;10.80;99.90;;;;;;5065563;28;20188;-65
2021/11/13 00:47:33;;;;;;;28.37;17.20;;;10.80;99.90;;;;;;5067476;28;20483;-66
2021/11/13 00:49:59;;;;;;;36.10;19.00;;;10.80;99.90;;;;;;5066963;28;20168;-65
2021/11/13 00:52:25;;;;;;;35.57;19.70;;;10.90;99.90;;;;;;5067467;28;20163;-65
2021/11/13 00:54:50;;;;;;;28.40;17.83;;;10.90;99.90;;;;;;5067125;28;20491;-65
2021/11/13 00:57:16;;;;;;;29.20;16.67;;;10.80;99.90;;;;;;5067398;28;20164;-65
2021/11/13 00:59:42;;;;;;;33.90;19.37;;;10.70;99.90;;;;;;5066533;28;20246;-65
2021/11/13 01:02:08;;;;;;;35.50;18.47;;;10.80;99.90;;;;;;5067059;28;20215;-66
2021/11/13 01:04:35;;;;;;;33.37;19.03;;;10.80;99.90;;;;;;5066957;28;20153;-65
2021/11/13 01:07:01;;;;;;;36.00;19.40;;;10.80;99.90;;;;;;5066984;28;20165;-65
2021/11/13 01:09:27;;;;;;;31.17;18.90;;;10.80;99.90;;;;;;5066632;28;20179;-65
2021/11/13 01:11:52;;;;;;;29.10;17.10;;;10.70;99.90;;;;;;5066902;28;20164;-65
2021/11/13 01:14:18;;;;;;;30.38;18.38;;;10.70;99.90;;;;;;5065263;28;20227;-65
2021/11/13 01:16:44;;;;;;;33.90;17.93;;;10.70;99.90;;;;;;5065254;28;20192;-65
2021/11/13 01:19:11;;;;;;;38.30;20.23;;;10.60;99.90;;;;;;5065302;28;20821;-65
2021/11/13 01:21:37;;;;;;;38.30;19.77;;;10.80;99.90;;;;;;5065191;28;20200;-65
2021/11/13 01:24:03;;;;;;;38.17;20.30;;;10.80;99.90;;;;;;5066794;28;20218;-65
2021/11/13 01:26:29;;;;;;;38.43;20.23;;;10.80;99.90;;;;;;5066496;28;20184;-65
2021/11/13 01:28:55;;;;;;;36.93;20.27;;;10.80;99.90;;;;;;5066352;28;20618;-65
2021/11/13 01:31:20;;;;;;;32.87;20.50;;;10.70;99.90;;;;;;5066004;28;20240;-65
2021/11/13 01:33:46;;;;;;;38.73;21.00;;;10.70;99.90;;;;;;5066583;28;20173;-65
2021/11/13 01:36:12;;;;;;;38.20;20.73;;;10.80;99.90;;;;;;5066350;28;20188;-66
2021/11/13 01:38:39;;;;;;;38.73;21.73;;;10.90;99.90;;;;;;5066487;28;20251;-65
2021/11/13 01:41:07;;;;;;;35.00;19.93;;;11.00;99.90;;;;;;5065273;28;20192;-65
2021/11/13 01:43:37;;;;;;;39.73;20.83;;;10.80;99.90;;;;;;5064923;28;20172;-65
2021/11/13 01:46:05;;;;;;;38.50;20.70;;;10.80;99.90;;;;;;5066015;28;20172;-65
2021/11/13 01:48:31;;;;;;;38.60;21.60;;;10.90;99.90;;;;;;5066455;28;20256;-65
2021/11/13 01:50:57;;;;;;;39.80;21.33;;;10.90;99.90;;;;;;5065834;28;20764;-65
2021/11/13 01:53:24;;;;;;;40.37;21.47;;;10.90;99.90;;;;;;5066193;28;20256;-65
2021/11/13 01:55:54;;;;;;;37.43;20.47;;;10.90;99.90;;;;;;5065956;28;20183;-65
2021/11/13 01:58:19;;;;;;;37.77;20.93;;;10.90;99.90;;;;;;5066347;28;20256;-65
2021/11/13 02:00:50;;;;;;;38.80;21.17;;;11.00;99.90;;;;;;5065452;28;20193;-65
2021/11/13 02:03:16;;;;;;;35.30;21.93;;;11.00;99.90;;;;;;5066248;28;20198;-65
2021/11/13 02:05:42;;;;;;;40.40;21.50;;;11.00;99.90;;;;;;5066079;28;20172;-65
2021/11/13 02:08:08;;;;;;;44.17;21.50;;;11.00;99.90;;;;;;5066178;28;20251;-65
2021/11/13 02:10:35;;;;;;;39.17;20.87;;;11.00;99.90;;;;;;5065808;28;20180;-65
2021/11/13 02:13:01;;;;;;;35.25;20.08;;;10.90;99.90;;;;;;5065831;28;20278;-65
2021/11/13 02:15:28;;;;;;;38.83;20.70;;;10.80;99.90;;;;;;5065567;28;20195;-66
2021/11/13 02:17:57;;;;;;;46.00;20.52;;;10.90;99.90;;;;;;5066195;28;20638;-65
2021/11/13 02:20:24;;;;;;;32.00;20.35;;;11.00;99.90;;;;;;5064393;28;20207;-65
2021/11/13 02:22:51;;;;;;;32.53;18.33;;;11.00;99.90;;;;;;5066133;28;20165;-65
2021/11/13 02:25:23;;;;;;;33.53;18.17;;;11.00;99.90;;;;;;5065944;28;20171;-65
2021/11/13 02:27:49;;;;;;;30.60;17.73;;;11.10;99.90;;;;;;5066087;28;20189;-65
2021/11/13 02:30:15;;;;;;;40.53;18.87;;;11.10;99.90;;;;;;5065387;28;20649;-65
2021/11/13 02:32:42;;;;;;;30.95;17.77;;;11.00;99.90;;;;;;5065842;28;20173;-65
2021/11/13 02:35:10;;;;;;;35.17;16.80;;;11.00;99.90;;;;;;5065732;28;20199;-65
2021/11/13 02:37:37;;;;;;;29.47;17.20;;;11.00;99.90;;;;;;5066027;28;20180;-65
2021/11/13 02:40:05;;;;;;;23.42;15.80;;;10.90;99.90;;;;;;5065471;28;20169;-65
2021/11/13 02:42:33;;;;;;;24.63;15.67;;;11.10;99.90;;;;;;5065863;28;20175;-65
2021/11/13 02:44:59;;;;;;;21.80;13.40;;;11.20;99.90;;;;;;5065490;28;20169;-65
2021/11/13 02:47:26;;;;;;;21.75;13.35;;;11.20;99.90;;;;;;5065846;28;20157;-65
2021/11/13 02:49:53;;;;;;;22.50;12.93;;;11.10;99.90;;;;;;5065527;28;20161;-65
2021/11/13 02:52:20;;;;;;;20.43;12.30;;;11.20;99.90;;;;;;5065755;28;20164;-65
2021/11/13 02:54:48;;;;;;;15.52;10.27;;;11.20;99.90;;;;;;5065634;28;20169;-65
2021/11/13 02:57:14;;;;;;;18.77;10.20;;;11.20;99.90;;;;;;5065655;28;20164;-65
2021/11/13 02:59:48;;;;;;;17.40;10.07;;;11.10;99.90;;;;;;5065329;28;20657;-65
2021/11/13 03:02:15;;;;;;;13.88;8.55;;;11.20;99.90;;;;;;5067702;28;20187;-65
2021/11/13 03:04:41;;;;;;;9.32;7.53;;;11.30;99.90;;;;;;5069349;28;20622;-65
2021/11/13 03:07:07;;;;;;;8.93;7.10;;;11.40;99.90;;;;;;5069297;28;20157;-65
2021/11/13 03:09:36;;;;;;;13.20;6.32;;;11.40;99.90;;;;;;5069132;28;20175;-65
2021/11/13 03:12:02;;;;;;;8.55;5.53;;;11.30;99.90;;;;;;5069271;28;20532;-65
2021/11/13 03:14:29;;;;;;;5.80;4.70;;;11.50;99.90;;;;;;5069226;28;20687;-65
2021/11/13 03:17:00;;;;;;;7.72;4.75;;;11.40;99.90;;;;;;5068940;28;20259;-65
2021/11/13 03:19:26;;;;;;;5.82;4.30;;;11.40;99.90;;;;;;5068926;28;20173;-65
2021/11/13 03:21:51;;;;;;;5.25;3.70;;;11.40;99.90;;;;;;5068861;28;20195;-65
2021/11/13 03:24:17;;;;;;;3.72;3.42;;;11.40;99.90;;;;;;5067488;28;20173;-65
2021/11/13 03:26:43;;;;;;;5.30;3.10;;;11.50;99.90;;;;;;5069029;28;20191;-66
2021/11/13 03:29:13;;;;;;;3.42;3.10;;;11.50;99.90;;;;;;5068614;28;20193;-65
2021/11/13 03:31:39;;;;;;;4.07;2.58;;;11.50;99.90;;;;;;5068478;28;20258;-65
2021/11/13 03:34:05;;;;;;;3.85;2.47;;;11.50;99.90;;;;;;5067711;28;20634;-65
2021/11/13 03:36:33;;;;;;;4.38;2.40;;;11.50;99.90;;;;;;5068852;28;20184;-66
2021/11/13 03:38:58;;;;;;;2.97;2.40;;;11.60;99.90;;;;;;5068822;28;20227;-65
2021/11/13 03:41:24;;;;;;;2.50;2.30;;;11.80;99.90;;;;;;5068377;28;20279;-65
2021/11/13 03:43:51;;;;;;;6.90;2.72;;;11.80;99.90;;;;;;5068758;28;20221;-65
2021/11/13 03:46:17;;;;;;;2.60;2.40;;;11.80;99.90;;;;;;5068209;28;20638;-65
2021/11/13 03:48:43;;;;;;;4.90;2.85;;;11.70;99.90;;;;;;5068616;28;20240;-66
2021/11/13 03:51:09;;;;;;;4.05;2.97;;;11.70;99.90;;;;;;5068207;28;20180;-66
2021/11/13 03:53:35;;;;;;;4.57;3.20;;;11.50;99.90;;;;;;5068548;28;20161;-66
2021/11/13 03:56:01;;;;;;;3.45;3.15;;;11.60;99.90;;;;;;5068156;28;20160;-66
2021/11/13 03:58:27;;;;;;;4.57;4.00;;;11.70;99.90;;;;;;5068390;28;20634;-66
2021/11/13 04:00:53;;;;;;;5.95;4.55;;;11.80;99.90;;;;;;5067496;28;20192;-66
2021/11/13 04:03:18;;;;;;;7.18;4.70;;;11.70;99.90;;;;;;5068434;28;20157;-66
2021/11/13 04:05:44;;;;;;;9.07;4.95;;;11.70;99.90;;;;;;5068322;28;20184;-66
2021/11/13 04:08:10;;;;;;;7.63;5.55;;;11.70;99.90;;;;;;5068282;28;20233;-65
2021/11/13 04:10:36;;;;;;;7.03;5.63;;;11.70;99.90;;;;;;5067745;28;20176;-65
2021/11/13 04:13:02;;;;;;;11.57;6.07;;;11.80;99.90;;;;;;5067783;28;20264;-65
2021/11/13 04:15:28;;;;;;;9.07;5.78;;;11.80;99.90;;;;;;5067653;28;20169;-66
2021/11/13 04:17:54;;;;;;;6.88;6.22;;;11.70;99.90;;;;;;5068129;28;20183;-65
2021/11/13 04:20:20;;;;;;;8.98;6.55;;;11.80;99.90;;;;;;5067520;28;20235;-65
2021/11/13 04:22:48;;;;;;;8.35;5.95;;;11.80;99.90;;;;;;5068064;28;20165;-65
2021/11/13 04:25:14;;;;;;;12.50;6.82;;;11.60;99.90;;;;;;5067819;28;20251;-65
2021/11/13 04:27:41;;;;;;;8.25;6.20;;;11.70;99.90;;;;;;5068042;28;20188;-66
2021/11/13 04:30:09;;;;;;;13.90;7.05;;;11.70;99.90;;;;;;5067397;28;20865;-65
2021/11/13 04:32:37;;;;;;;12.35;7.05;;;11.80;99.90;;;;;;5067867;28;20161;-66
2021/11/13 04:38:08;;;;;;;11.18;7.57;;;11.80;99.90;;;;;;5045682;28;20181;-66
2021/11/13 04:40:36;;;;;;;13.15;7.75;;;11.80;99.90;;;;;;5045200;28;20216;-66
2021/11/13 04:43:03;;;;;;;10.35;7.65;;;11.70;99.90;;;;;;5045434;28;20257;-66
2021/11/13 04:45:28;;;;;;;10.77;7.72;;;11.60;99.90;;;;;;5045107;28;20173;-65
2021/11/13 04:47:54;;;;;;;11.55;7.45;;;11.60;99.90;;;;;;5045309;28;20219;-65
2021/11/13 04:50:22;;;;;;;14.35;7.53;;;11.60;99.90;;;;;;5044753;28;20185;-65
2021/11/13 04:52:49;;;;;;;13.70;7.45;;;11.60;99.90;;;;;;5045334;28;20646;-65
2021/11/13 04:55:15;;;;;;;12.90;8.20;;;11.80;99.90;;;;;;5044974;28;20268;-65
2021/11/13 04:57:41;;;;;;;14.55;8.55;;;11.80;99.90;;;;;;5045290;28;20201;-65
2021/11/13 05:00:10;;;;;;;16.13;8.35;;;11.80;99.90;;;;;;5044381;28;20174;-65
2021/11/13 05:02:35;;;;;;;15.73;8.70;;;11.80;99.90;;;;;;5044752;28;20183;-66
2021/11/13 05:05:01;;;;;;;14.43;8.35;;;11.90;99.90;;;;;;5028494;28;20204;-66
2021/11/13 05:07:27;;;;;;;12.88;8.15;;;11.90;99.90;;;;;;5044897;28;20181;-65
2021/11/13 05:09:54;;;;;;;12.38;7.68;;;11.80;99.90;;;;;;5065006;28;20192;-66
2021/11/13 05:12:20;;;;;;;12.70;8.23;;;11.90;99.90;;;;;;5066773;28;20739;-66
2021/11/13 05:14:46;;;;;;;13.93;8.15;;;11.70;99.90;;;;;;5066855;28;20644;-66
2021/11/13 05:17:12;;;;;;;14.43;8.18;;;11.70;99.90;;;;;;5066830;28;20161;-66
2021/11/13 05:19:37;;;;;;;15.38;7.95;;;11.70;99.90;;;;;;5066690;28;20243;-65
2021/11/13 05:22:05;;;;;;;13.63;7.57;;;11.80;99.90;;;;;;5066875;28;20194;-65
2021/11/13 05:24:31;;;;;;;12.80;7.75;;;11.80;99.90;;;;;;5066221;28;20160;-65
2021/11/13 05:26:56;;;;;;;17.08;8.32;;;11.90;99.90;;;;;;5066803;28;20163;-69
2021/11/13 05:29:22;;;;;;;20.10;8.63;;;11.90;99.90;;;;;;5066509;28;20240;-65
2021/11/13 05:31:47;;;;;;;7.75;6.82;;;11.90;99.90;;;;;;5066104;28;20168;-66
2021/11/13 05:34:13;;;;;;;14.65;7.80;;;12.10;99.90;;;;;;5066579;28;20165;-66
2021/11/13 05:36:40;;;;;;;20.70;7.85;;;12.10;99.90;;;;;;5066700;28;20165;-66
2021/11/13 05:39:07;;;;;;;12.65;7.75;;;12.00;99.90;;;;;;5066566;28;20248;-65
2021/11/13 05:41:33;;;;;;;10.43;7.93;;;12.10;99.90;;;;;;5066069;28;20193;-67
2021/11/13 05:43:58;;;;;;;13.30;7.70;;;12.10;99.90;;;;;;5066494;28;20414;-66
2021/11/13 05:46:24;;;;;;;12.60;7.25;;;12.20;99.90;;;;;;5064741;28;20234;-66
2021/11/13 05:48:50;;;;;;;18.35;8.27;;;12.10;99.90;;;;;;5066582;28;20657;-65
2021/11/13 05:51:16;;;;;;;9.95;7.13;;;12.00;99.90;;;;;;5065809;28;20199;-67
2021/11/13 05:53:42;;;;;;;20.08;7.55;;;12.00;99.90;;;;;;5066322;28;20172;-67
2021/11/13 05:56:08;;;;;;;16.92;7.32;;;12.00;99.90;;;;;;5065939;28;20160;-66
2021/11/13 05:58:33;;;;;;;14.98;6.82;;;12.00;99.90;;;;;;5066158;28;20172;-65
2021/11/13 06:00:59;;;;;;;18.17;6.85;;;12.10;99.90;;;;;;5064155;28;20207;-66
2021/11/13 06:03:25;;;;;;;11.77;6.95;;;12.10;99.90;;;;;;5064929;28;20195;-66
2021/11/13 06:05:50;;;;;;;12.07;6.25;;;12.20;99.90;;;;;;5065970;28;20508;-65
2021/11/13 06:08:16;;;;;;;10.57;6.20;;;12.10;99.90;;;;;;5066186;28;20164;-65
2021/11/13 06:10:41;;;;;;;13.30;6.93;;;12.10;99.90;;;;;;5065622;28;20165;-65
2021/11/13 06:13:07;;;;;;;12.38;6.63;;;12.10;99.90;;;;;;5065751;28;20223;-65
2021/11/13 06:15:33;;;;;;;10.10;5.38;;;12.00;99.90;;;;;;5065652;28;20172;-65
2021/11/13 06:17:59;;;;;;;13.55;5.82;;;12.10;99.90;;;;;;5066291;28;20169;-65
2021/11/13 06:20:25;;;;;;;16.17;4.72;;;12.30;99.90;;;;;;5065298;28;20195;-65
2021/11/13 06:22:50;;;;;;;7.95;4.00;;;12.30;99.90;;;;;;5066128;28;20176;-65
2021/11/13 06:25:16;;;;;;;11.55;4.53;;;12.20;99.90;;;;;;5065874;28;20220;-65
2021/11/13 06:27:43;;;;;;;11.10;4.10;;;12.30;99.90;;;;;;5065832;28;20156;-65
2021/11/13 06:30:11;;;;;;;12.25;3.85;;;12.10;99.90;;;;;;5065354;28;20174;-64
2021/11/13 06:32:38;;;;;;;8.48;3.70;;;12.10;99.90;;;;;;5064524;28;20660;-65
2021/11/13 06:35:06;;;;;;;10.98;4.15;;;12.10;99.90;;;;;;5065837;28;20161;-65
2021/11/13 06:37:32;;;;;;;10.38;3.72;;;12.10;99.90;;;;;;5068458;28;20168;-65
2021/11/13 06:39:58;;;;;;;8.73;4.22;;;12.10;99.90;;;;;;5069741;28;20173;-65
2021/11/13 06:42:23;;;;;;;13.95;4.30;;;12.10;99.90;;;;;;5069688;28;20197;-65
2021/11/13 06:44:49;;;;;;;11.18;4.07;;;12.10;99.90;;;;;;5069962;28;20161;-65
2021/11/13 06:47:15;;;;;;;18.90;5.47;;;12.10;99.90;;;;;;5069310;28;20187;-65
2021/11/13 06:49:41;;;;;;;11.45;4.07;;;12.20;99.90;;;;;;5069368;28;20157;-64
2021/11/13 06:52:07;;;;;;;14.38;4.82;;;12.10;99.90;;;;;;5069397;28;20171;-65
2021/11/13 06:54:32;;;;;;;9.95;5.43;;;12.10;99.90;;;;;;5069747;28;20164;-65
2021/11/13 06:56:59;;;;;;;13.48;4.80;;;12.00;99.90;;;;;;5069516;28;20165;-65
2021/11/13 06:59:24;;;;;;;13.57;5.13;;;12.00;99.90;;;;;;5067943;28;20169;-65
2021/11/13 07:01:50;;;;;;;6.68;4.53;;;12.00;99.90;;;;;;5068881;28;20199;-65
2021/11/13 07:04:16;;;;;;;6.18;4.50;;;11.90;99.90;;;;;;5069495;28;20644;-65
2021/11/13 07:06:41;;;;;;;13.48;5.40;;;11.80;99.90;;;;;;5068962;28;20188;-65
2021/11/13 07:09:07;;;;;;;13.48;5.32;;;11.80;99.90;;;;;;5068086;28;20574;-65
2021/11/13 07:11:33;;;;;;;10.25;4.72;;;11.80;99.90;;;;;;5068755;28;20177;-65
2021/11/13 07:13:58;;;;;;;13.15;5.55;;;11.80;99.90;;;;;;5068728;28;20228;-65
2021/11/13 07:16:24;;;;;;;12.13;5.25;;;11.60;99.90;;;;;;5068304;28;20172;-64
2021/11/13 07:18:50;;;;;;;9.10;4.32;;;11.70;99.90;;;;;;5068605;28;20532;-64
2021/11/13 07:21:16;;;;;;;10.25;5.22;;;11.70;99.90;;;;;;5068523;28;20224;-64
2021/11/13 07:23:41;;;;;;;15.15;5.22;;;11.60;99.90;;;;;;5068885;28;20161;-64
2021/11/13 07:26:07;;;;;;;8.02;4.90;;;11.60;99.90;;;;;;5068148;28;20244;-64
2021/11/13 07:28:40;;;;;;;10.10;4.72;;;11.60;99.90;;;;;;5068609;28;20157;-64
2021/11/13 07:31:09;;;;;;;9.27;5.18;;;11.60;99.90;;;;;;5067922;28;20191;-65
2021/11/13 07:33:35;;;;;;;6.22;4.78;;;11.60;99.90;;;;;;5068734;28;20163;-64
2021/11/13 07:36:00;;;;;;;6.72;4.90;;;11.60;99.90;;;;;;5068588;28;20161;-64
2021/11/13 07:38:26;;;;;;;12.23;4.75;;;11.50;99.90;;;;;;5067242;28;20172;-64
2021/11/13 07:40:52;;;;;;;7.53;4.85;;;11.50;99.90;;;;;;5068120;28;20203;-64
2021/11/13 07:43:18;;;;;;;7.25;4.78;;;11.50;99.90;;;;;;5068469;28;20231;-64
2021/11/13 07:45:44;;;;;;;12.93;5.30;;;11.50;99.90;;;;;;5068085;28;20642;-64
2021/11/13 07:48:09;;;;;;;7.68;4.38;;;11.60;99.90;;;;;;5066455;28;20210;-64
2021/11/13 07:50:36;;;;;;;6.72;4.57;;;11.70;99.90;;;;;;5067852;28;20228;-64
2021/11/13 07:53:06;;;;;;;7.72;5.03;;;11.70;99.90;;;;;;5068452;28;20169;-66
2021/11/13 07:55:33;;;;;;;12.52;5.32;;;11.70;99.90;;;;;;5067101;28;20912;-64
2021/11/13 07:57:59;;;;;;;13.07;4.70;;;11.80;99.90;;;;;;5068235;28;20224;-64
2021/11/13 08:00:28;;;;;;;9.82;4.32;;;11.80;99.90;;;;;;5067160;28;20184;-64
2021/11/13 08:02:54;;;;;;;8.73;4.57;;;11.80;99.90;;;;;;5067968;28;20544;-64
2021/11/13 08:05:21;;;;;;;8.90;4.55;;;11.90;99.90;;;;;;5067967;28;20161;-65
2021/11/13 08:07:47;;;;;;;12.55;5.32;;;11.80;99.90;;;;;;5067032;28;20900;-65
2021/11/13 08:10:14;;;;;;;15.30;5.07;;;11.90;99.90;;;;;;5067782;28;20229;-65
2021/11/13 08:12:41;;;;;;;8.02;4.63;;;11.80;99.90;;;;;;5067659;28;20217;-64
2021/11/13 08:15:07;;;;;;;15.95;4.75;;;11.70;99.90;;;;;;5067818;28;20187;-64
2021/11/13 08:17:33;;;;;;;8.38;4.43;;;11.60;99.90;;;;;;5067517;28;20171;-64
2021/11/13 08:19:59;;;;;;;8.02;4.93;;;11.70;99.90;;;;;;5066392;28;20232;-64
2021/11/13 08:22:25;;;;;;;9.73;4.70;;;11.80;99.90;;;;;;5067405;28;20223;-64
2021/11/13 08:24:51;;;;;;;8.98;4.30;;;11.80;99.90;;;;;;5067464;28;20160;-64
2021/11/13 08:27:17;;;;;;;8.60;4.07;;;11.80;99.90;;;;;;5067803;28;20220;-64
2021/11/13 08:29:42;;;;;;;11.05;4.50;;;11.80;99.90;;;;;;5067318;28;20187;-65
2021/11/13 08:32:09;;;;;;;8.60;4.50;;;11.90;99.90;;;;;;5067008;28;20621;-64
2021/11/13 08:34:35;;;;;;;7.95;4.35;;;11.90;99.90;;;;;;5066194;28;20161;-64
2021/11/13 08:37:04;;;;;;;10.65;4.15;;;11.90;99.90;;;;;;5067408;28;20164;-64
2021/11/13 08:39:35;;;;;;;5.20;4.05;;;11.90;99.90;;;;;;5067302;28;20161;-64
2021/11/13 08:42:11;;;;;;;11.80;3.97;;;11.80;99.90;;;;;;5065725;28;20268;-64
2021/11/13 08:44:42;;;;;;;7.00;4.18;;;11.80;99.90;;;;;;5067373;28;20156;-64
2021/11/13 08:47:09;;;;;;;10.75;4.07;;;11.80;99.90;;;;;;5066878;28;20192;-64
2021/11/13 08:49:37;;;;;;;8.20;4.22;;;11.80;99.90;;;;;;5067327;28;20161;-64
2021/11/13 08:52:04;;;;;;;8.00;4.47;;;11.80;99.90;;;;;;5067022;28;20165;-64
2021/11/13 08:54:30;;;;;;;7.18;3.95;;;11.90;99.90;;;;;;5067222;28;20626;-64
2021/11/13 08:56:56;;;;;;;8.48;4.57;;;12.00;99.90;;;;;;5066990;28;20169;-64
2021/11/13 08:59:21;;;;;;;9.88;4.28;;;11.90;99.90;;;;;;5066300;28;20173;-64
2021/11/13 09:01:48;;;;;;;9.43;4.43;;;11.90;99.90;;;;;;5066569;28;20268;-64
2021/11/13 09:04:14;;;;;;;13.40;4.18;;;11.80;99.90;;;;;;5066899;28;20153;-64
2021/11/13 09:06:40;;;;;;;8.02;4.20;;;11.90;99.90;;;;;;5066729;28;20551;-64
2021/11/13 09:09:06;;;;;;;7.13;4.05;;;11.80;99.90;;;;;;5067029;28;20165;-64
2021/11/13 09:11:37;;;;;;;6.13;4.20;;;11.80;99.90;;;;;;5066671;28;20165;-64
2021/11/13 09:14:05;;;;;;;11.52;4.53;;;11.80;99.90;;;;;;5066663;28;20238;-64
2021/11/13 09:16:32;;;;;;;8.13;5.15;;;11.90;99.90;;;;;;5066312;28;20177;-64
2021/11/13 09:18:58;;;;;;;6.78;3.80;;;11.90;99.90;;;;;;5066665;28;20188;-65
2021/11/13 09:21:24;;;;;;;8.23;4.70;;;12.00;99.90;;;;;;5066204;28;20196;-65
2021/11/13 09:23:50;;;;;;;8.15;4.30;;;12.10;99.90;;;;;;5066685;28;20245;-65
2021/11/13 09:26:17;;;;;;;9.85;4.32;;;12.20;99.90;;;;;;5066240;28;20618;-65
2021/11/13 09:28:43;;;;;;;10.05;5.05;;;12.40;99.90;;;;;;5066517;28;20780;-65
2021/11/13 09:31:09;;;;;;;9.68;4.93;;;12.40;99.90;;;;;;5065809;28;20168;-66
2021/11/13 09:33:38;;;;;;;14.73;5.20;;;12.50;99.90;;;;;;5066503;28;20168;-65
2021/11/13 09:36:04;;;;;;;7.15;4.95;;;12.40;99.90;;;;;;5066137;28;20223;-64
2021/11/13 09:38:33;;;;;;;7.03;4.15;;;12.30;99.90;;;;;;5065236;28;20231;-64
2021/11/13 09:41:04;;;;;;;9.55;4.63;;;12.30;99.90;;;;;;5065429;28;20189;-64
2021/11/13 09:43:31;;;;;;;11.73;5.20;;;12.30;99.90;;;;;;5065837;28;20151;-65
2021/11/13 09:45:59;;;;;;;10.75;5.15;;;12.20;99.90;;;;;;5064540;28;20251;-65
2021/11/13 09:48:26;;;;;;;7.78;4.43;;;12.20;99.90;;;;;;5066223;28;20188;-64
2021/11/13 09:50:53;;;;;;;9.15;4.47;;;12.30;99.90;;;;;;5065662;28;20180;-65
2021/11/13 09:53:21;;;;;;;10.38;4.78;;;12.30;99.90;;;;;;5065664;28;20169;-65
2021/11/13 09:55:47;;;;;;;8.82;4.40;;;12.20;99.90;;;;;;5065728;28;20175;-65
2021/11/13 09:58:13;;;;;;;9.25;5.22;;;12.10;99.90;;;;;;5064703;28;20161;-65
2021/11/13 10:00:40;;;;;;;6.65;4.13;;;12.10;99.90;;;;;;5065071;28;20191;-65
2021/11/13 10:03:07;;;;;;;6.97;4.10;;;12.10;99.90;;;;;;5065233;28;20168;-64
2021/11/13 10:05:33;;;;;;;6.15;4.57;;;12.10;99.90;;;;;;5065355;28;20161;-65
2021/11/13 10:07:59;;;;;;;8.95;5.05;;;12.20;99.90;;;;;;5065552;28;20653;-65
2021/11/13 10:10:30;;;;;;;5.63;4.25;;;12.20;99.90;;;;;;5065343;28;20220;-65
2021/11/13 10:12:56;;;;;;;5.97;3.83;;;12.30;99.90;;;;;;5065252;28;20220;-65
2021/11/13 10:15:35;;;;;;;4.78;4.22;;;12.20;99.90;;;;;;5065467;28;20537;-64
2021/11/13 10:18:21;;;;;;;7.68;4.30;;;12.30;99.90;;;;;;5065780;28;20162;-65
2021/11/13 10:21:10;;;;;;;12.52;3.65;;;12.20;99.90;;;;;;5065747;28;20321;-64
2021/11/13 10:23:38;;;;;;;9.00;4.10;;;12.10;99.90;;;;;;5064562;28;20175;-65
2021/11/13 10:26:18;;;;;;;7.85;3.85;;;12.10;99.90;;;;;;5065535;28;20157;-66
2021/11/13 10:28:46;;;;;;;3.60;3.30;;;12.10;99.90;;;;;;5065670;28;20151;-65
2021/11/13 10:31:23;;;;;;;5.50;3.38;;;12.10;99.90;;;;;;5064918;28;20195;-65
2021/11/13 10:33:51;;;;;;;5.82;3.45;;;12.10;99.90;;;;;;5065594;28;20232;-65
2021/11/13 10:36:25;;;;;;;7.28;3.38;;;12.30;99.90;;;;;;5065630;28;20161;-65
2021/11/13 10:39:00;;;;;;;6.95;4.05;;;12.50;99.90;;;;;;5065884;28;20146;-65
2021/11/13 10:41:26;;;;;;;4.60;3.80;;;12.50;99.90;;;;;;5065003;28;20196;-65
2021/11/13 10:43:52;;;;;;;9.27;3.83;;;12.40;99.90;;;;;;5065433;28;20167;-65
2021/11/13 10:46:20;;;;;;;7.78;4.13;;;12.50;99.90;;;;;;5065165;28;20197;-65
2021/11/13 10:48:52;;;;;;;8.52;4.15;;;12.60;99.90;;;;;;5064248;28;20630;-65
2021/11/13 10:51:25;;;;;;;5.45;3.83;;;12.70;99.90;;;;;;5065472;28;20180;-65
2021/11/13 10:53:51;;;;;;;7.03;3.97;;;12.80;99.90;;;;;;5065755;28;20153;-65
2021/11/13 10:56:21;;;;;;;8.82;3.97;;;12.80;99.90;;;;;;5065651;28;20597;-65
2021/11/13 10:58:50;;;;;;;10.82;4.00;;;12.70;99.90;;;;;;5065826;28;20161;-65
2021/11/13 11:01:32;;;;;;;4.90;3.42;;;12.80;99.90;;;;;;5064927;28;20248;-65
2021/11/13 11:04:05;;;;;;;8.40;3.45;;;12.70;99.90;;;;;;5065484;28;20547;-65
2021/11/13 11:06:37;;;;;;;5.20;2.97;;;12.70;99.90;;;;;;5065503;28;20173;-65
2021/11/13 11:09:25;;;;;;;5.38;3.58;;;12.80;99.90;;;;;;5065569;28;20143;-65
2021/11/13 11:11:53;;;;;;;3.58;3.00;;;12.90;99.90;;;;;;5065073;28;20178;-65
2021/11/13 11:14:25;;;;;;;5.68;2.72;;;12.80;99.90;;;;;;5065156;28;20216;-65
2021/11/13 11:16:58;;;;;;;3.60;3.00;;;12.70;99.90;;;;;;5064708;28;20176;-65
2021/11/13 11:19:32;;;;;;;5.43;3.55;;;12.70;99.90;;;;;;5064320;28;20410;-65
2021/11/13 11:22:04;;;;;;;7.90;3.30;;;12.90;99.90;;;;;;5065169;28;20220;-65
2021/11/13 11:24:36;;;;;;;4.68;3.25;;;12.80;99.90;;;;;;5069085;28;20662;-65
2021/11/13 11:27:13;;;;;;;2.92;2.17;;;12.80;99.90;;;;;;5068834;28;20161;-65
2021/11/13 11:29:54;;;;;;;5.88;2.38;;;12.80;99.90;;;;;;5067839;28;20251;-65
2021/11/13 11:32:31;;;;;;;3.67;2.20;;;12.80;99.90;;;;;;5068306;28;20173;-65
2021/11/13 11:34:59;;;;;;;3.53;2.08;;;12.70;99.90;;;;;;5068639;28;20218;-65
2021/11/13 11:37:31;;;;;;;2.97;1.98;;;12.80;99.90;;;;;;5068599;28;20220;-65
2021/11/13 11:40:05;;;;;;;3.30;2.60;;;12.80;99.90;;;;;;5067924;28;20503;-65
2021/11/13 11:42:30;;;;;;;7.15;2.10;;;12.80;99.90;;;;;;5068410;28;20200;-65
2021/11/13 11:44:59;;;;;;;5.93;2.28;;;12.80;99.90;;;;;;5068588;28;20167;-65
2021/11/13 11:47:26;;;;;;;4.35;1.98;;;12.80;99.90;;;;;;5068282;28;20223;-65
2021/11/13 11:49:54;;;;;;;5.78;2.10;;;12.80;99.90;;;;;;5068479;28;20240;-65
2021/11/13 11:52:22;;;;;;;3.40;1.88;;;12.90;99.90;;;;;;5068312;28;20581;-65
2021/11/13 11:54:49;;;;;;;2.67;1.80;;;12.80;99.90;;;;;;5068372;28;20168;-65
2021/11/13 11:57:16;;;;;;;3.25;1.70;;;12.90;99.90;;;;;;5068281;28;20165;-65
2021/11/13 11:59:43;;;;;;;7.40;2.15;;;12.90;99.90;;;;;;5068421;28;20199;-65
2021/11/13 12:02:15;;;;;;;3.08;2.00;;;12.80;99.90;;;;;;5067503;28;20195;-65
2021/11/13 12:04:43;;;;;;;6.53;2.10;;;12.70;99.90;;;;;;5068122;28;20157;-65
2021/11/13 12:07:09;;;;;;;7.28;1.58;;;12.70;99.90;;;;;;5068111;28;20153;-66
2021/11/13 12:09:56;;;;;;;3.00;1.40;;;12.70;99.90;;;;;;5068204;28;20203;-65
2021/11/13 12:12:22;;;;;;;2.53;1.80;;;12.70;99.90;;;;;;5067662;28;20196;-64
2021/11/13 12:14:49;;;;;;;2.85;2.10;;;12.80;99.90;;;;;;5068157;28;20181;-65
2021/11/13 12:17:35;;;;;;;4.70;2.10;;;12.90;99.90;;;;;;5066461;28;20211;-65
2021/11/13 12:20:04;;;;;;;3.95;1.98;;;12.90;99.90;;;;;;5067559;28;20163;-65
2021/11/13 12:22:56;;;;;;;5.82;1.80;;;12.90;99.90;;;;;;5067417;28;20696;-65
2021/11/13 12:25:34;;;;;;;3.50;2.20;;;12.90;99.90;;;;;;5067900;28;20233;-65
2021/11/13 12:28:19;;;;;;;2.97;1.80;;;13.00;99.90;;;;;;5067906;28;20207;-65
2021/11/13 12:30:47;;;;;;;3.70;1.92;;;12.80;99.90;;;;;;5067076;28;20176;-65
2021/11/13 12:33:25;;;;;;;3.95;2.17;;;12.70;99.90;;;;;;5067367;28;20157;-65
2021/11/13 12:36:15;;;;;;;5.13;2.10;;;12.70;99.90;;;;;;5067523;28;20226;-65
2021/11/13 12:38:55;;;;;;;3.83;2.38;;;12.60;99.90;;;;;;5067443;28;20153;-65
2021/11/13 12:41:24;;;;;;;5.30;2.42;;;12.60;99.90;;;;;;5065802;28;20601;-65
2021/11/13 12:43:56;;;;;;;3.63;1.85;;;12.50;99.90;;;;;;5067522;28;20165;-66